Latest Weather Observations for Gosford

IDN60801

Issued at 6:05 pm EDT Tuesday 21 October 2014 (issued every 30 minutes, with the page automatically refreshed every 10 minutes)

About weather observations | Map of weather stations | Latest weather observations for NSW | Other Formats
Station Details ID: 061425 Name: GOSFORD AWS Lat: -33.44 Lon: 151.36 Height: 7.0 m
Data from the previous 72 hours. | See also: Recent months at Gosford
Date/Time
EDT
Temp
°C
App
Temp
°C
Dew
Point
Rel
Hum
%
Delta-T
°C
Wind Press
QNH
hPa
Press
MSL
hPa
Rain
since 9 am
mm
Dir
 
Spd
km/h
Gust
km/h
Spd
kts
Gust
kts
21/06:00pm 16.5 15.1 9.7 64 3.6 E 7 13 4 7 - - 0.0
21/05:30pm 16.6 15.3 10.0 65 3.5 E 7 13 4 7 - - 0.0
21/05:00pm 16.7 14.7 10.3 66 3.4 E 11 19 6 10 - - 0.0
21/04:30pm 16.9 15.1 11.0 68 3.2 ENE 11 15 6 8 - - 0.0
21/04:00pm 17.1 15.4 9.8 62 3.8 E 9 17 5 9 - - 0.0
21/03:30pm 17.2 14.8 10.1 63 3.8 E 13 19 7 10 - - 0.0
21/03:00pm 17.4 15.3 9.8 61 4.0 ENE 11 20 6 11 - - 0.0
21/02:30pm 17.8 15.5 8.9 56 4.6 E 11 20 6 11 - - 0.0
21/02:00pm 18.1 16.1 8.7 54 4.9 E 9 19 5 10 - - 0.0
21/01:30pm 18.1 16.0 8.4 53 5.0 ENE 9 15 5 8 - - 0.0
21/01:00pm 17.9 16.3 8.7 55 4.8 E 7 11 4 6 - - 0.0
21/12:30pm 17.7 16.1 8.6 55 4.7 ENE 7 17 4 9 - - 0.0
21/12:00pm 17.7 15.7 8.6 55 4.7 E 9 20 5 11 - - 0.0
21/11:30am 17.6 15.7 9.2 58 4.4 ENE 9 15 5 8 - - 0.0
21/11:00am 17.2 15.3 8.9 58 4.3 E 9 17 5 9 - - 0.0
21/10:30am 17.2 15.3 8.9 58 4.3 E 9 13 5 7 - - 0.0
21/10:00am 16.9 15.5 9.6 62 3.8 E 7 15 4 8 - - 0.0
21/09:30am 16.8 15.4 9.7 63 3.7 E 7 13 4 7 - - 0.0
21/09:00am 16.5 15.6 10.8 69 3.0 ENE 6 13 3 7 - - 3.0
21/08:30am 15.6 16.0 12.5 82 1.7 NNW 2 4 1 2 - - 3.0
21/08:00am 15.0 14.9 12.0 82 1.6 NE 4 13 2 7 - - 3.0
21/07:30am 13.9 14.0 12.8 93 0.6 NE 4 6 2 3 - - 3.0
21/07:00am 13.8 14.8 13.2 96 0.3 CALM 0 4 0 2 - - 3.0
21/06:30am 13.5 14.5 13.3 99 0.1 CALM 0 4 0 2 - - 3.0
21/06:00am 13.5 14.2 13.3 99 0.1 N 2 6 1 3 - - 3.0
21/05:30am 13.7 14.9 13.7 100 0.0 CALM 0 0 0 0 - - 3.0
21/05:00am 13.7 14.5 13.7 100 0.0 NNE 2 4 1 2 - - 3.0
21/04:30am 13.7 14.5 13.7 100 0.0 WNW 2 4 1 2 - - 3.0
21/04:00am 13.7 14.1 13.7 100 0.0 NNW 4 6 2 3 - - 3.0
21/03:30am 13.8 14.6 13.8 100 0.0 WNW 2 4 1 2 - - 3.0
21/03:00am 13.8 14.6 13.6 99 0.1 S 2 6 1 3 - - 3.0
21/02:30am 13.8 14.9 13.6 99 0.1 CALM 0 4 0 2 - - 3.0
21/02:00am 13.8 15.0 13.8 100 0.0 CALM 0 4 0 2 - - 2.8
21/01:30am 13.9 14.4 13.9 100 0.0 NNW 4 6 2 3 - - 2.8
21/01:00am 14.2 15.5 14.2 100 0.0 CALM 0 4 0 2 - - 2.6
21/12:30am 14.1 15.4 14.1 100 0.0 CALM 0 0 0 0 - - 2.0
21/12:00am 13.9 14.4 13.9 100 0.0 NW 4 6 2 3 - - 2.0
 
Date/Time
EDT
Temp
°C
App
Temp
°C
Dew
Point
Rel
Hum
%
Delta-T
°C
Wind Press
QNH
hPa
Press
MSL
hPa
Rain
since 9 am
mm
Dir
 
Spd
km/h
Gust
km/h
Spd
kts
Gust
kts
20/11:30pm 14.1 14.3 14.1 100 0.0 NNW 6 7 3 4 - - 2.0
20/11:00pm 14.3 14.8 14.0 98 0.2 SW 4 6 2 3 - - 1.8
20/10:30pm 14.3 15.1 13.8 97 0.3 N 2 4 1 2 - - 1.4
20/10:00pm 14.6 15.9 14.0 96 0.3 CALM 0 0 0 0 - - 1.4
20/09:30pm 14.8 15.2 13.7 93 0.6 SE 4 13 2 7 - - 1.2
20/09:00pm 15.3 15.6 13.3 88 1.1 E 4 7 2 4 - - 1.2
20/08:30pm 15.6 15.3 13.3 86 1.3 SE 7 13 4 7 - - 1.2
20/08:00pm 15.1 16.3 13.8 92 0.7 CALM 0 4 0 2 - - 1.2
20/07:30pm 14.9 15.2 13.3 90 0.9 E 4 7 2 4 - - 1.2
20/07:00pm 15.2 15.0 13.6 90 0.9 SE 7 13 4 7 - - 1.0
20/06:30pm 15.1 15.1 14.1 94 0.6 SSE 7 13 4 7 - - 0.8
20/06:00pm 15.3 14.6 14.3 94 0.6 SSE 11 19 6 10 - - 0.8
20/05:30pm 15.3 15.9 14.2 93 0.6 SSE 4 7 2 4 - - 0.8
20/05:00pm 15.5 15.8 14.9 96 0.3 SE 7 15 4 8 - - 0.6
20/04:30pm 15.9 16.2 15.1 95 0.5 S 7 13 4 7 - - 0.4
20/04:00pm 16.1 15.3 15.1 94 0.6 SE 13 24 7 13 - - 0.2
20/03:30pm 17.1 17.1 15.3 89 1.0 SE 9 20 5 11 - - 0.2
20/03:00pm 16.9 16.8 16.1 95 0.5 SSE 11 22 6 12 - - 0.2
20/02:30pm 16.7 15.1 15.9 95 0.5 S 19 33 10 18 - - 0.0
20/02:00pm 18.8 17.4 14.5 76 2.5 S 15 24 8 13 - - 0.0
20/01:30pm 18.6 16.2 14.3 76 2.5 S 20 35 11 19 - - 0.0
20/01:00pm 18.3 17.6 14.4 78 2.2 S 11 22 6 12 - - 0.0
20/12:30pm 18.1 15.5 13.8 76 2.4 S 20 35 11 19 - - 0.0
20/12:00pm 18.6 15.7 12.8 69 3.3 S 20 32 11 17 - - 0.0
20/11:30am 18.4 14.8 13.1 71 3.0 S 24 39 13 21 - - 0.0
20/11:00am 18.6 14.2 12.8 69 3.3 S 28 46 15 25 - - 0.0
20/10:30am 18.4 14.1 13.1 71 3.0 S 28 48 15 26 - - 0.0
20/10:22am 18.3 13.8 12.7 70 3.1 S 28 46 15 25 - - 0.0
20/10:00am 18.4 14.7 12.6 69 3.2 S 24 37 13 20 - - 0.0
20/09:30am 18.6 14.2 13.0 70 3.2 S 28 43 15 23 - - 0.0
20/09:00am 18.6 14.5 13.7 73 2.8 S 28 44 15 24 - - 0.0
20/08:30am 18.8 16.3 14.1 74 2.7 S 20 35 11 19 - - 0.0
20/08:00am 18.4 14.6 14.7 79 2.1 S 28 44 15 24 - - 0.0
20/07:30am 18.3 13.8 14.8 80 2.0 S 32 52 17 28 - - 0.0
20/07:00am 18.4 14.9 16.4 88 1.2 S 30 48 16 26 - - 0.0
20/06:56am 18.4 14.6 16.6 89 1.1 S 32 44 17 24 - - 0.0
20/06:30am 14.9 14.4 14.9 100 0.0 SW 11 20 6 11 - - 0.0
20/06:00am 12.3 13.0 12.3 100 0.0 CALM 0 4 0 2 - - 0.0
20/05:30am 12.2 12.9 12.2 100 0.0 CALM 0 0 0 0 - - 0.0
20/05:00am 12.2 12.9 12.2 100 0.0 CALM 0 0 0 0 - - 0.0
20/04:30am 12.2 12.8 12.0 99 0.1 CALM 0 0 0 0 - - 0.0
20/04:00am 13.0 13.9 13.0 100 0.0 CALM 0 0 0 0 - - 0.0
20/03:30am 13.2 14.2 13.2 100 0.0 CALM 0 0 0 0 - - 0.0
20/03:00am 12.8 13.6 12.6 99 0.1 CALM 0 0 0 0 - - 0.0
20/02:30am 13.4 14.3 12.9 97 0.3 CALM 0 0 0 0 - - 0.0
20/02:00am 13.7 14.7 13.1 96 0.3 CALM 0 0 0 0 - - 0.0
20/01:30am 14.2 15.3 13.4 95 0.4 CALM 0 0 0 0 - - 0.0
20/01:00am 14.9 16.0 13.6 92 0.7 CALM 0 0 0 0 - - 0.0
20/12:30am 15.4 16.5 13.4 88 1.1 CALM 0 2 0 1 - - 0.0
20/12:00am 16.2 17.1 13.9 86 1.3 ENE 2 4 1 2 - - 0.0
 
Date/Time
EDT
Temp
°C
App
Temp
°C
Dew
Point
Rel
Hum
%
Delta-T
°C
Wind Press
QNH
hPa
Press
MSL
hPa
Rain
since 9 am
mm
Dir
 
Spd
km/h
Gust
km/h
Spd
kts
Gust
kts
19/11:30pm 16.4 17.3 13.9 85 1.4 ENE 2 4 1 2 - - 0.0
19/11:00pm 17.0 17.6 14.3 84 1.5 ENE 4 7 2 4 - - 0.0
19/10:30pm 16.1 16.6 13.9 87 1.2 ENE 4 7 2 4 - - 0.0
19/10:00pm 16.7 16.9 14.2 85 1.4 E 6 9 3 5 - - 0.0
19/09:30pm 17.1 17.4 14.4 84 1.5 ENE 6 9 3 5 - - 0.0
19/09:00pm 17.6 17.8 14.1 80 2.0 ENE 6 9 3 5 - - 0.0
19/08:30pm 17.4 17.9 13.9 80 2.0 ENE 4 7 2 4 - - 0.0
19/08:00pm 18.0 18.5 14.1 78 2.2 ENE 4 9 2 5 - - 0.0
19/07:30pm 18.7 18.7 14.2 75 2.6 E 7 13 4 7 - - 0.0
19/07:00pm 19.1 18.4 14.4 74 2.7 ENE 11 15 6 8 - - 0.0
19/06:30pm 20.1 18.8 13.8 67 3.6 ENE 13 20 7 11 - - 0.0
19/06:00pm 21.0 19.5 13.2 61 4.5 ENE 13 20 7 11 - - 0.0
19/05:30pm 22.0 20.8 12.8 56 5.2 NE 11 20 6 11 - - 0.0
19/05:00pm 22.3 20.4 14.2 60 4.7 ENE 17 22 9 12 - - 0.0
19/04:30pm 23.0 20.8 13.2 54 5.7 E 17 22 9 12 - - 0.0
19/04:00pm 24.0 21.9 13.5 52 6.1 E 17 22 9 12 - - 0.0
19/03:30pm 24.0 21.7 12.9 50 6.4 ENE 17 22 9 12 - - 0.0
19/03:00pm 24.0 21.9 13.5 52 6.1 ENE 17 26 9 14 - - 0.0
19/02:30pm 24.0 21.8 13.2 50 6.3 ENE 17 22 9 12 - - 0.0
19/02:00pm 24.3 22.8 14.1 53 6.0 ENE 15 28 8 15 - - 0.0
19/01:30pm 24.0 22.2 12.0 47 6.8 NE 13 20 7 11 - - 0.0
19/01:00pm 24.1 24.9 19.0 73 3.2 NE 13 20 7 11 - - 0.0
19/12:30pm 23.2 24.2 18.7 76 2.8 ENE 11 20 6 11 - - 0.0
19/12:00pm 23.0 23.7 17.9 73 3.2 ENE 11 17 6 9 - - 0.0
19/11:30am 22.6 23.2 16.9 70 3.5 NE 9 15 5 8 - - 0.0
19/11:00am 21.7 22.3 16.9 74 2.9 NNE 9 15 5 8 - - 0.0
19/10:30am 21.6 22.6 16.8 74 2.9 N 7 15 4 8 - - 0.0
19/10:00am 20.2 21.0 15.8 76 2.6 NNW 6 13 3 7 - - 0.0
19/09:30am 18.9 19.9 15.4 80 2.1 N 4 11 2 6 - - 0.0
19/09:00am 17.1 18.6 15.6 91 0.9 S 2 4 1 2 - - 0.0
19/08:30am 15.9 17.7 15.6 98 0.2 CALM 0 0 0 0 - - 0.0
19/08:00am 13.3 - - - - CALM 0 0 0 0 - - 0.0
19/07:30am 11.4 - - - - CALM 0 0 0 0 - - 0.0
19/07:00am 10.3 - - - - CALM 0 0 0 0 - - 0.0
19/06:30am 8.6 - - - - CALM 0 0 0 0 - - 0.0
19/06:00am 9.1 - - - - CALM 0 0 0 0 - - 0.0
19/05:30am 8.8 - - - - CALM 0 0 0 0 - - 0.0
19/05:00am 9.0 - - - - CALM 0 0 0 0 - - 0.0
19/04:30am 9.0 - - - - CALM 0 0 0 0 - - 0.0
19/04:00am 9.8 - - - - CALM 0 0 0 0 - - 0.0
19/03:30am 9.6 - - - - CALM 0 0 0 0 - - 0.0
19/03:00am 10.0 - - - - CALM 0 0 0 0 - - 0.0
19/02:30am 10.1 - - - - CALM 0 0 0 0 - - 0.0
19/02:00am 10.7 - - - - CALM 0 0 0 0 - - 0.0
19/01:30am 10.6 - - - - CALM 0 0 0 0 - - 0.0
19/01:00am 10.9 - - - - CALM 0 0 0 0 - - 0.0
19/12:30am 10.9 - - - - CALM 0 0 0 0 - - 0.0
19/12:00am 11.0 - - - - CALM 0 0 0 0 - - 0.0
 
Date/Time
EDT
Temp
°C
App
Temp
°C
Dew
Point
Rel
Hum
%
Delta-T
°C
Wind Press
QNH
hPa
Press
MSL
hPa
Rain
since 9 am
mm
Dir
 
Spd
km/h
Gust
km/h
Spd
kts
Gust
kts
18/11:30pm 11.7 - - - - CALM 0 0 0 0 - - 0.0
18/11:00pm 11.6 - - - - CALM 0 0 0 0 - - 0.0
18/10:30pm 11.9 - - - - CALM 0 0 0 0 - - 0.0
18/10:00pm 12.1 - - - - CALM 0 0 0 0 - - 0.0
18/09:30pm 12.3 - - - - NE 2 4 1 2 - - 0.0
18/09:00pm 13.1 13.3 13.1 100 0.0 NE 4 4 2 2 - - 0.0
18/08:30pm 14.5 14.8 13.5 94 0.6 NE 4 7 2 4 - - 0.0
18/08:00pm 15.1 15.0 13.3 89 1.0 NE 6 9 3 5 - - 0.0
18/07:30pm 15.9 15.6 12.8 82 1.7 NNE 6 11 3 6 - - 0.0
18/07:00pm 16.4 16.2 12.9 80 1.9 NE 6 9 3 5 - - 0.0
18/06:30pm 17.4 16.3 13.1 76 2.4 NE 11 17 6 9 - - 0.0

Other Formats:

Comma delimited format used in spreadsheet applications
http://www.bom.gov.au/fwo/IDN60801/IDN60801.94782.axf

JavaScript Object Notation format (JSON) in row-major order
http://www.bom.gov.au/fwo/IDN60801/IDN60801.94782.json